Time;durP1;ratioP1;P1;durP2;ratioP2;P2;SDS_P1;SDS_P2;PMS_P1;PMS_P2;Temp;Humidity;BMP_temperature;BMP_pressure;BME280_temperature;BME280_humidity;BME280_pressure;Samples;Min_cycle;Max_cycle;Signal;HPM_P1;HPM_P2
2022/11/05 00:10:04;;;;;;;7.82;5.63;;;;;;;;;;5081634;28;20044;-72
2022/11/05 00:18:04;;;;;;;4.88;4.03;;;;;;;;;;5068988;28;20636;-73
2022/11/05 00:20:31;;;;;;;5.50;4.68;;;;;;;;;;5070118;28;20085;-71
2022/11/05 00:25:58;;;;;;;6.85;5.32;;;;;;;;;;5060125;28;20561;-72
2022/11/05 00:28:27;;;;;;;5.50;4.38;;;;;;;;;;5065752;28;20052;-73
2022/11/05 00:30:59;;;;;;;4.38;3.78;;;;;;;;;;5020853;28;20044;-72
2022/11/05 00:33:27;;;;;;;5.80;4.63;;;;;;;;;;5061744;28;20163;-72
2022/11/05 00:35:54;;;;;;;4.38;3.90;;;;;;;;;;5047723;28;20037;-72
2022/11/05 00:38:21;;;;;;;5.13;4.05;;;;;;;;;;5067530;28;20565;-72
2022/11/05 00:40:48;;;;;;;5.78;4.82;;;;;;;;;;5067921;28;20040;-71
2022/11/05 00:46:02;;;;;;;6.90;5.20;;;;;;;;;;5068330;28;20064;-71
2022/11/05 00:51:15;;;;;;;5.18;4.53;;;;;;;;;;5062931;28;20055;-70
2022/11/05 00:53:42;;;;;;;6.60;5.88;;;;;;;;;;5044828;28;20455;-71
2022/11/05 00:56:09;;;;;;;6.75;6.10;;;;;;;;;;5049992;28;20479;-71
2022/11/05 00:58:37;;;;;;;5.53;4.80;;;;;;;;;;5068838;28;20571;-71
2022/11/05 01:01:04;;;;;;;7.28;6.30;;;;;;;;;;5057917;28;20438;-71
2022/11/05 01:03:33;;;;;;;8.43;6.15;;;;;;;;;;5067609;28;20060;-71
2022/11/05 01:06:10;;;;;;;7.32;5.57;;;;;;;;;;5067526;28;20075;-71
2022/11/05 01:08:37;;;;;;;8.38;7.20;;;;;;;;;;5068142;28;20058;-71
2022/11/05 01:11:31;;;;;;;10.00;6.68;;;;;;;;;;5066039;28;20044;-71
2022/11/05 01:14:09;;;;;;;8.32;6.22;;;;;;;;;;5046845;28;20037;-71
2022/11/05 01:16:37;;;;;;;11.00;7.45;;;;;;;;;;5064151;28;20202;-71
2022/11/05 01:19:05;;;;;;;12.35;7.10;;;;;;;;;;5058787;28;20044;-72
2022/11/05 01:21:33;;;;;;;9.43;6.47;;;;;;;;;;5062307;28;20504;-70
2022/11/05 01:24:01;;;;;;;7.10;5.72;;;;;;;;;;5065806;28;20032;-71
2022/11/05 01:26:28;;;;;;;9.85;7.90;;;;;;;;;;5071734;22;20049;-85
2022/11/05 01:28:56;;;;;;;7.38;6.35;;;;;;;;;;5086881;28;20400;-85
2022/11/05 01:31:24;;;;;;;9.02;7.25;;;;;;;;;;5078956;28;20604;-86
2022/11/05 01:33:51;;;;;;;13.13;7.30;;;;;;;;;;5053644;28;20394;-86
2022/11/05 01:36:18;;;;;;;11.25;7.65;;;;;;;;;;5067666;28;20051;-85
2022/11/05 01:38:46;;;;;;;10.07;7.00;;;;;;;;;;5090384;28;20443;-86
2022/11/05 01:41:13;;;;;;;11.60;7.53;;;;;;;;;;5052643;28;20048;-86
2022/11/05 01:43:51;;;;;;;8.90;6.85;;;;;;;;;;5067150;28;20079;-85
2022/11/05 01:46:21;;;;;;;11.25;9.20;;;;;;;;;;5081217;28;20051;-85
2022/11/05 01:48:50;;;;;;;16.70;9.50;;;;;;;;;;5079580;28;20048;-85
2022/11/05 01:51:19;;;;;;;14.63;10.38;;;;;;;;;;5085641;28;20048;-85
2022/11/05 01:53:48;;;;;;;14.15;9.50;;;;;;;;;;5088833;28;20054;-85
2022/11/05 01:56:21;;;;;;;12.57;8.90;;;;;;;;;;5088423;28;20115;-85
2022/11/05 01:58:51;;;;;;;12.82;9.63;;;;;;;;;;5087341;28;20536;-85
2022/11/05 02:01:19;;;;;;;8.57;7.75;;;;;;;;;;5067090;28;20070;-85
2022/11/05 02:03:47;;;;;;;10.80;8.55;;;;;;;;;;5064319;28;20052;-86
2022/11/05 02:06:16;;;;;;;12.07;9.27;;;;;;;;;;5086980;28;20098;-85
2022/11/05 02:08:43;;;;;;;10.30;9.00;;;;;;;;;;5050428;28;20095;-85
2022/11/05 02:11:12;;;;;;;12.45;9.52;;;;;;;;;;5070143;28;20085;-85
2022/11/05 02:13:40;;;;;;;12.57;8.80;;;;;;;;;;5034104;28;20044;-85
2022/11/05 02:16:32;;;;;;;8.90;7.95;;;;;;;;;;5085352;28;20444;-85
2022/11/05 02:19:03;;;;;;;12.45;7.80;;;;;;;;;;5070686;28;20040;-85
2022/11/05 02:22:06;;;;;;;11.80;9.27;;;;;;;;;;5072115;28;20063;-85
2022/11/05 02:24:35;;;;;;;9.25;8.35;;;;;;;;;;4987734;28;20050;-86
2022/11/05 02:27:15;;;;;;;11.38;9.15;;;;;;;;;;5072357;28;20071;-85
2022/11/05 02:29:54;;;;;;;10.88;9.00;;;;;;;;;;5088147;28;20445;-85
2022/11/05 02:32:51;;;;;;;9.77;8.77;;;;;;;;;;5089507;28;20044;-85
2022/11/05 02:35:36;;;;;;;8.88;7.97;;;;;;;;;;5008716;28;20085;-86
2022/11/05 02:38:04;;;;;;;11.77;9.00;;;;;;;;;;5089581;28;20043;-86
2022/11/05 02:40:31;;;;;;;12.00;9.90;;;;;;;;;;5071392;28;20063;-86
2022/11/05 02:43:06;;;;;;;13.50;11.18;;;;;;;;;;5069253;28;20036;-85
2022/11/05 02:45:42;;;;;;;11.27;9.52;;;;;;;;;;5071123;28;20071;-85
2022/11/05 02:48:09;;;;;;;13.60;10.35;;;;;;;;;;5051841;28;20110;-85
2022/11/05 02:50:39;;;;;;;11.65;8.93;;;;;;;;;;5054636;28;20043;-85
2022/11/05 02:53:19;;;;;;;10.57;8.57;;;;;;;;;;5068394;28;20043;-84
2022/11/05 02:55:50;;;;;;;8.60;7.68;;;;;;;;;;5066367;28;20043;-85
2022/11/05 02:58:17;;;;;;;7.88;7.15;;;;;;;;;;5089552;28;20046;-84
2022/11/05 03:00:49;;;;;;;9.70;8.32;;;;;;;;;;5083855;28;20036;-84
2022/11/05 03:03:17;;;;;;;9.68;8.52;;;;;;;;;;5086610;28;20051;-84
2022/11/05 03:05:50;;;;;;;9.38;7.60;;;;;;;;;;5071844;28;20051;-84
2022/11/05 03:08:47;;;;;;;8.85;7.85;;;;;;;;;;5036574;28;20612;-84
2022/11/05 03:11:15;;;;;;;8.32;7.40;;;;;;;;;;5069142;28;20441;-84
2022/11/05 03:13:45;;;;;;;8.23;7.43;;;;;;;;;;5053797;28;20051;-84
2022/11/05 03:16:29;;;;;;;11.27;8.40;;;;;;;;;;5088333;28;20040;-84
2022/11/05 03:18:59;;;;;;;9.02;8.07;;;;;;;;;;5087475;28;20039;-84
2022/11/05 03:21:37;;;;;;;9.00;6.85;;;;;;;;;;5088045;28;20475;-85
2022/11/05 03:24:19;;;;;;;8.77;7.88;;;;;;;;;;5053002;28;20063;-85
2022/11/05 03:26:51;;;;;;;7.47;6.22;;;;;;;;;;5084434;28;20044;-84
2022/11/05 03:29:36;;;;;;;8.95;7.93;;;;;;;;;;5067713;28;20451;-83
2022/11/05 03:32:04;;;;;;;11.10;9.48;;;;;;;;;;5069504;28;20090;-85
2022/11/05 03:34:36;;;;;;;8.07;7.25;;;;;;;;;;5088153;28;20068;-86
2022/11/05 03:37:04;;;;;;;10.82;8.50;;;;;;;;;;5065178;28;20040;-85
2022/11/05 03:39:36;;;;;;;8.95;8.02;;;;;;;;;;5053380;28;20530;-85
2022/11/05 03:42:05;;;;;;;11.82;8.95;;;;;;;;;;5065122;28;20044;-85
2022/11/05 03:44:35;;;;;;;9.13;8.23;;;;;;;;;;5057305;28;20106;-85
2022/11/05 03:47:08;;;;;;;6.90;6.30;;;;;;;;;;5042100;28;20040;-84
2022/11/05 03:49:38;;;;;;;9.90;7.65;;;;;;;;;;5070342;28;20402;-85
2022/11/05 03:52:11;;;;;;;10.35;9.25;;;;;;;;;;5086018;28;20154;-85
2022/11/05 03:54:38;;;;;;;10.32;9.10;;;;;;;;;;5086989;28;20044;-84
2022/11/05 03:57:06;;;;;;;9.77;7.25;;;;;;;;;;5087282;28;20127;-85
2022/11/05 03:59:39;;;;;;;8.77;7.72;;;;;;;;;;5070250;28;20051;-84
2022/11/05 04:02:06;;;;;;;10.10;8.93;;;;;;;;;;5069409;28;20069;-85
2022/11/05 04:04:34;;;;;;;9.50;8.57;;;;;;;;;;5088371;28;20044;-85
2022/11/05 04:15:19;;;;;;;12.82;10.15;;;;;;;;;;5081668;28;20040;-85
2022/11/05 04:17:46;;;;;;;9.23;8.32;;;;;;;;;;5085365;28;20032;-85
2022/11/05 04:25:46;;;;;;;11.73;9.93;;;;;;;;;;5086809;28;20067;-85
2022/11/05 04:28:13;;;;;;;10.98;9.02;;;;;;;;;;5090493;28;20082;-84
2022/11/05 04:30:43;;;;;;;9.02;8.07;;;;;;;;;;5070586;28;20059;-85
2022/11/05 04:33:14;;;;;;;11.27;9.40;;;;;;;;;;5070574;28;20410;-85
2022/11/05 04:35:46;;;;;;;11.00;8.85;;;;;;;;;;5069386;28;20042;-85
2022/11/05 04:38:15;;;;;;;9.10;8.25;;;;;;;;;;5068274;28;20421;-85
2022/11/05 04:40:43;;;;;;;11.07;9.40;;;;;;;;;;5088107;28;20476;-85
2022/11/05 04:43:14;;;;;;;11.90;9.27;;;;;;;;;;5089654;28;20405;-85
2022/11/05 04:45:42;;;;;;;;;;;;;;;;;;5074407;28;20048;-85
2022/11/05 04:48:09;;;;;;;10.43;9.25;;;;;;;;;;5056574;28;19959;-85
2022/11/05 04:50:37;;;;;;;10.07;9.05;;;;;;;;;;5064809;28;20060;-85
2022/11/05 04:53:04;;;;;;;10.55;9.45;;;;;;;;;;5090621;28;20514;-86
2022/11/05 04:55:31;;;;;;;11.07;9.70;;;;;;;;;;5066690;28;20048;-85
2022/11/05 04:57:58;;;;;;;9.52;8.63;;;;;;;;;;5071007;28;20064;-86
2022/11/05 05:00:25;;;;;;;9.75;8.75;;;;;;;;;;5035690;28;20448;-86
2022/11/05 05:02:53;;;;;;;11.05;9.85;;;;;;;;;;5056003;28;20234;-86
2022/11/05 05:05:21;;;;;;;10.30;9.18;;;;;;;;;;5053451;28;20036;-85
2022/11/05 05:07:49;;;;;;;12.38;9.77;;;;;;;;;;5069277;28;20696;-85
2022/11/05 05:10:16;;;;;;;9.30;8.40;;;;;;;;;;5088039;28;20044;-85
2022/11/05 05:12:44;;;;;;;10.43;8.55;;;;;;;;;;5068127;28;20130;-84
2022/11/05 05:15:11;;;;;;;15.82;9.27;;;;;;;;;;5063727;28;20039;-85
2022/11/05 05:17:38;;;;;;;10.23;9.23;;;;;;;;;;5068205;28;20060;-85
2022/11/05 05:22:55;;;;;;;10.02;9.02;;;;;;;;;;5049038;28;20496;-85
2022/11/05 05:25:22;;;;;;;10.75;9.10;;;;;;;;;;5071396;28;20040;-85
2022/11/05 05:27:50;;;;;;;8.85;8.00;;;;;;;;;;5071404;28;20117;-85
2022/11/05 05:30:17;;;;;;;11.48;9.85;;;;;;;;;;5087323;28;20055;-85
2022/11/05 05:32:44;;;;;;;13.77;8.20;;;;;;;;;;5081610;28;20044;-85
2022/11/05 05:35:12;;;;;;;10.30;9.30;;;;;;;;;;5062043;28;20519;-85
2022/11/05 05:37:39;;;;;;;14.30;10.40;;;;;;;;;;5067671;28;20127;-84
2022/11/05 05:40:06;;;;;;;12.80;10.35;;;;;;;;;;5089872;28;20082;-84
2022/11/05 05:42:34;;;;;;;9.48;8.48;;;;;;;;;;5110608;28;20020;-84
2022/11/05 05:45:09;;;;;;;12.30;9.43;;;;;;;;;;5093703;28;20102;-84
2022/11/05 05:47:36;;;;;;;13.00;10.18;;;;;;;;;;5102336;28;20257;-84
2022/11/05 05:50:03;;;;;;;11.48;9.88;;;;;;;;;;5061151;28;20383;-85
2022/11/05 05:52:31;;;;;;;14.68;11.02;;;;;;;;;;5073737;28;20075;-85
2022/11/05 05:54:58;;;;;;;11.52;8.82;;;;;;;;;;5086914;28;20040;-85
2022/11/05 05:57:25;;;;;;;15.30;10.55;;;;;;;;;;5090084;28;20110;-84
2022/11/05 05:59:53;;;;;;;12.52;9.88;;;;;;;;;;5089236;28;20117;-85
2022/11/05 06:02:21;;;;;;;9.25;8.07;;;;;;;;;;5085098;28;20519;-85
2022/11/05 06:04:49;;;;;;;10.55;9.43;;;;;;;;;;5086452;28;20094;-85
2022/11/05 06:07:16;;;;;;;11.32;8.95;;;;;;;;;;5085952;28;20508;-85
2022/11/05 06:09:43;;;;;;;11.35;9.77;;;;;;;;;;5087347;28;20040;-85
2022/11/05 06:12:15;;;;;;;9.88;8.48;;;;;;;;;;5050298;28;20067;-85
2022/11/05 06:14:45;;;;;;;13.45;10.07;;;;;;;;;;5069308;28;20466;-84
2022/11/05 06:17:27;;;;;;;12.27;9.40;;;;;;;;;;5072967;28;20043;-86
2022/11/05 06:20:00;;;;;;;11.30;9.95;;;;;;;;;;5083482;28;20034;-86
2022/11/05 06:22:27;;;;;;;12.85;8.98;;;;;;;;;;5066520;28;20032;-87
2022/11/05 06:24:55;;;;;;;15.90;10.80;;;;;;;;;;5089353;28;20036;-84
2022/11/05 06:27:22;;;;;;;11.73;9.45;;;;;;;;;;5030982;28;20056;-85
2022/11/05 06:29:49;;;;;;;12.80;9.80;;;;;;;;;;5080860;28;20047;-86
2022/11/05 06:32:16;;;;;;;11.50;9.25;;;;;;;;;;5067669;28;20113;-85
2022/11/05 06:34:44;;;;;;;13.82;9.48;;;;;;;;;;5080541;28;20401;-84
2022/11/05 06:37:11;;;;;;;11.88;9.75;;;;;;;;;;5085131;28;20044;-85
2022/11/05 06:39:38;;;;;;;13.27;10.27;;;;;;;;;;5067639;28;20063;-84
2022/11/05 06:42:06;;;;;;;14.85;10.40;;;;;;;;;;5051235;28;20143;-84
2022/11/05 06:44:51;;;;;;;15.27;11.00;;;;;;;;;;5067322;28;20048;-86
2022/11/05 06:47:18;;;;;;;14.02;10.40;;;;;;;;;;5066815;28;20052;-85
2022/11/05 06:49:46;;;;;;;10.95;9.55;;;;;;;;;;5040704;28;20556;-85
2022/11/05 06:52:14;;;;;;;11.05;9.07;;;;;;;;;;5063580;28;20067;-86
2022/11/05 06:54:42;;;;;;;9.50;8.18;;;;;;;;;;5063258;28;20439;-85
2022/11/05 06:57:11;;;;;;;10.38;9.27;;;;;;;;;;5054662;28;20132;-85
2022/11/05 06:59:39;;;;;;;12.85;10.02;;;;;;;;;;5086167;28;20051;-85
2022/11/05 07:02:07;;;;;;;9.88;8.88;;;;;;;;;;5085267;28;20044;-85
2022/11/05 07:04:35;;;;;;;12.88;9.18;;;;;;;;;;5086491;28;20072;-85
2022/11/05 07:07:02;;;;;;;15.18;10.38;;;;;;;;;;5051104;28;20055;-84
2022/11/05 07:09:30;;;;;;;14.73;10.60;;;;;;;;;;5084761;28;20052;-84
2022/11/05 07:11:58;;;;;;;10.52;9.35;;;;;;;;;;5087313;28;20047;-85
2022/11/05 07:14:25;;;;;;;13.18;10.02;;;;;;;;;;5067300;28;20079;-84
2022/11/05 07:16:52;;;;;;;10.15;8.57;;;;;;;;;;5065047;28;20113;-85
2022/11/05 07:19:20;;;;;;;11.88;8.95;;;;;;;;;;5072062;28;20580;-85
2022/11/05 07:21:49;;;;;;;10.63;9.25;;;;;;;;;;5042883;28;20097;-85
2022/11/05 07:24:16;;;;;;;11.25;9.50;;;;;;;;;;5062747;28;20056;-84
2022/11/05 07:26:44;;;;;;;10.05;8.80;;;;;;;;;;5076100;28;20072;-84
2022/11/05 07:29:11;;;;;;;10.70;9.40;;;;;;;;;;5081578;28;20037;-84
2022/11/05 07:31:38;;;;;;;10.55;9.05;;;;;;;;;;5064317;28;20048;-84
2022/11/05 07:34:06;;;;;;;12.73;9.23;;;;;;;;;;5049149;28;20085;-85
2022/11/05 07:36:33;;;;;;;10.85;9.13;;;;;;;;;;5069941;28;20083;-84
2022/11/05 07:39:00;;;;;;;10.57;9.23;;;;;;;;;;5078708;28;20032;-83
2022/11/05 07:41:28;;;;;;;15.35;9.57;;;;;;;;;;5087822;28;20553;-84
2022/11/05 07:43:55;;;;;;;8.80;7.63;;;;;;;;;;5060090;28;20097;-85
2022/11/05 07:46:23;;;;;;;9.20;7.20;;;;;;;;;;5088981;28;20044;-85
2022/11/05 07:48:50;;;;;;;10.20;8.55;;;;;;;;;;5053137;28;20046;-84
2022/11/05 07:51:17;;;;;;;9.23;7.55;;;;;;;;;;5037449;28;20148;-86
2022/11/05 07:53:47;;;;;;;8.48;7.53;;;;;;;;;;5065869;28;20038;-86
2022/11/05 07:56:14;;;;;;;9.25;8.30;;;;;;;;;;5064288;28;20075;-85
2022/11/05 07:58:42;;;;;;;10.77;8.27;;;;;;;;;;5063104;28;20455;-85
2022/11/05 08:01:09;;;;;;;8.70;7.53;;;;;;;;;;5055402;28;20892;-86
2022/11/05 08:03:37;;;;;;;9.10;8.18;;;;;;;;;;5093075;28;20040;-85
2022/11/05 08:06:04;;;;;;;10.43;8.95;;;;;;;;;;5088575;28;20070;-85
2022/11/05 08:08:31;;;;;;;10.13;9.00;;;;;;;;;;5066468;28;20052;-85
2022/11/05 08:11:05;;;;;;;11.35;9.50;;;;;;;;;;5058599;28;20150;-87
2022/11/05 08:13:33;;;;;;;10.50;9.20;;;;;;;;;;5056800;28;20048;-85
2022/11/05 08:16:01;;;;;;;9.82;8.90;;;;;;;;;;5073732;28;20083;-85
2022/11/05 08:18:32;;;;;;;11.43;9.50;;;;;;;;;;5092401;28;20047;-85
2022/11/05 08:21:04;;;;;;;11.05;9.25;;;;;;;;;;5057409;28;20052;-85
2022/11/05 08:23:31;;;;;;;11.05;9.30;;;;;;;;;;5091171;28;20036;-86
2022/11/05 08:26:01;;;;;;;12.85;8.23;;;;;;;;;;5081482;28;20485;-85
2022/11/05 08:28:29;;;;;;;10.73;9.05;;;;;;;;;;5092227;28;20079;-85
2022/11/05 08:30:56;;;;;;;12.63;8.90;;;;;;;;;;5092183;28;20072;-85
2022/11/05 08:33:24;;;;;;;14.27;9.85;;;;;;;;;;5092356;28;20044;-84
2022/11/05 08:35:51;;;;;;;17.25;11.65;;;;;;;;;;5073581;28;20162;-84
2022/11/05 08:38:19;;;;;;;13.48;9.55;;;;;;;;;;5073500;28;20535;-85
2022/11/05 08:40:53;;;;;;;8.50;7.13;;;;;;;;;;5034171;28;20044;-86
2022/11/05 08:43:21;;;;;;;9.20;8.05;;;;;;;;;;5031978;28;20559;-85
2022/11/05 08:45:48;;;;;;;8.95;8.05;;;;;;;;;;5055111;28;20104;-85
2022/11/05 08:48:17;;;;;;;10.63;9.00;;;;;;;;;;5072414;28;20044;-84
2022/11/05 08:50:45;;;;;;;14.32;10.75;;;;;;;;;;5071084;28;20075;-85
2022/11/05 08:53:12;;;;;;;13.18;9.50;;;;;;;;;;5071149;28;20044;-84
2022/11/05 08:55:40;;;;;;;10.55;9.13;;;;;;;;;;5053790;28;20104;-84
2022/11/05 08:58:11;;;;;;;9.85;8.40;;;;;;;;;;5074455;28;20489;-85
2022/11/05 09:00:38;;;;;;;10.50;8.97;;;;;;;;;;5046793;28;20044;-84
2022/11/05 09:03:07;;;;;;;12.90;9.32;;;;;;;;;;5091037;28;20048;-84
2022/11/05 09:05:36;;;;;;;15.32;10.38;;;;;;;;;;5073012;28;20109;-84
2022/11/05 09:08:07;;;;;;;12.88;9.93;;;;;;;;;;5091586;28;20130;-84
2022/11/05 09:10:37;;;;;;;13.20;9.82;;;;;;;;;;5073763;28;20536;-84
2022/11/05 09:13:05;;;;;;;14.27;9.75;;;;;;;;;;5074175;28;20044;-84
2022/11/05 09:15:32;;;;;;;15.20;10.30;;;;;;;;;;5090707;28;20074;-84
2022/11/05 09:18:00;;;;;;;13.27;9.40;;;;;;;;;;5073018;28;20039;-84
2022/11/05 09:20:28;;;;;;;9.95;8.23;;;;;;;;;;5055707;28;20101;-84
2022/11/05 09:22:55;;;;;;;12.57;8.80;;;;;;;;;;5073081;28;20058;-84
2022/11/05 09:25:23;;;;;;;11.65;7.97;;;;;;;;;;5090961;28;20040;-85
2022/11/05 09:27:50;;;;;;;13.50;9.38;;;;;;;;;;5091671;28;20063;-84
2022/11/05 09:30:17;;;;;;;12.93;8.18;;;;;;;;;;5074123;28;20040;-84
2022/11/05 09:32:45;;;;;;;11.90;8.75;;;;;;;;;;5073227;28;20052;-84
2022/11/05 09:35:12;;;;;;;15.43;9.90;;;;;;;;;;5094893;28;20075;-84
2022/11/05 09:37:39;;;;;;;10.25;8.05;;;;;;;;;;5093952;28;20036;-84
2022/11/05 09:40:06;;;;;;;10.88;8.52;;;;;;;;;;5094687;28;20527;-84
2022/11/05 09:42:39;;;;;;;13.48;8.45;;;;;;;;;;5074959;28;20032;-83
2022/11/05 09:45:19;;;;;;;10.23;8.75;;;;;;;;;;5093169;28;20524;-83
2022/11/05 09:47:48;;;;;;;12.15;8.77;;;;;;;;;;5075229;28;20079;-84
2022/11/05 09:50:22;;;;;;;10.00;8.20;;;;;;;;;;5093176;28;20048;-83
2022/11/05 09:52:49;;;;;;;12.23;9.15;;;;;;;;;;5075054;28;20044;-83
2022/11/05 09:55:19;;;;;;;15.23;8.77;;;;;;;;;;5075445;28;20066;-83
2022/11/05 09:57:52;;;;;;;11.00;9.55;;;;;;;;;;5059002;28;20505;-84
2022/11/05 10:00:19;;;;;;;14.10;9.55;;;;;;;;;;5074099;28;20043;-83
2022/11/05 10:02:55;;;;;;;12.55;9.75;;;;;;;;;;5091617;28;20036;-84
2022/11/05 10:05:26;;;;;;;14.23;9.55;;;;;;;;;;5073442;28;20044;-83
2022/11/05 10:07:58;;;;;;;16.27;10.52;;;;;;;;;;5072422;28;20051;-83
2022/11/05 10:10:34;;;;;;;15.35;11.10;;;;;;;;;;5072095;28;20063;-83
2022/11/05 10:13:26;;;;;;;14.20;9.68;;;;;;;;;;5089218;28;20044;-83
2022/11/05 10:15:56;;;;;;;17.45;12.13;;;;;;;;;;5087025;28;20075;-84
2022/11/05 10:18:30;;;;;;;14.98;11.18;;;;;;;;;;5071395;28;20048;-83
2022/11/05 10:20:57;;;;;;;16.00;11.90;;;;;;;;;;5073309;28;20032;-83
2022/11/05 10:23:25;;;;;;;20.67;13.52;;;;;;;;;;5085787;28;20107;-83
2022/11/05 10:25:55;;;;;;;14.88;11.13;;;;;;;;;;5089742;28;20458;-83
2022/11/05 10:28:24;;;;;;;15.68;11.90;;;;;;;;;;5055173;28;21082;-82
2022/11/05 10:30:56;;;;;;;13.93;11.82;;;;;;;;;;5087452;28;20158;-85
2022/11/05 10:33:43;;;;;;;18.20;12.43;;;;;;;;;;5071382;28;20075;-85
2022/11/05 10:36:17;;;;;;;16.98;12.70;;;;;;;;;;5066747;28;20048;-86
2022/11/05 10:38:44;;;;;;;12.63;10.15;;;;;;;;;;5054818;28;20039;-86
2022/11/05 10:41:17;;;;;;;17.17;12.30;;;;;;;;;;5073754;28;20469;-85
2022/11/05 10:43:57;;;;;;;15.55;11.95;;;;;;;;;;5091873;28;20405;-84
2022/11/05 10:46:32;;;;;;;13.60;11.45;;;;;;;;;;5072016;28;20413;-84
2022/11/05 10:49:17;;;;;;;14.20;12.00;;;;;;;;;;5069997;28;20443;-84
2022/11/05 10:51:46;;;;;;;16.92;12.73;;;;;;;;;;5087001;28;20052;-84
2022/11/05 10:54:19;;;;;;;14.10;12.60;;;;;;;;;;5070643;28;20046;-84
2022/11/05 10:56:49;;;;;;;12.60;11.25;;;;;;;;;;5071729;28;20477;-85
2022/11/05 10:59:19;;;;;;;13.85;12.13;;;;;;;;;;5039049;28;20642;-84
2022/11/05 11:01:47;;;;;;;12.82;11.50;;;;;;;;;;5052379;28;20048;-85
2022/11/05 11:04:16;;;;;;;14.95;11.80;;;;;;;;;;5071023;28;20052;-84
2022/11/05 11:06:48;;;;;;;11.98;10.55;;;;;;;;;;5070455;28;20044;-84
2022/11/05 11:09:30;;;;;;;12.43;11.13;;;;;;;;;;5072131;28;20497;-84
2022/11/05 11:12:16;;;;;;;16.45;11.07;;;;;;;;;;5070975;28;20135;-84
2022/11/05 11:14:48;;;;;;;11.70;10.50;;;;;;;;;;5087695;28;20539;-84
2022/11/05 11:17:15;;;;;;;;;;;;;;;;;;5055550;28;20051;-85
2022/11/05 11:19:45;;;;;;;10.57;9.23;;;;;;;;;;5037704;28;19926;-84
2022/11/05 11:22:13;;;;;;;11.20;10.10;;;;;;;;;;5051639;28;20058;-84
2022/11/05 11:24:49;;;;;;;15.35;10.55;;;;;;;;;;5068553;28;20040;-85
2022/11/05 11:27:22;;;;;;;11.68;10.48;;;;;;;;;;5070278;28;20036;-85
2022/11/05 11:30:04;;;;;;;13.50;9.50;;;;;;;;;;5066248;28;20127;-85
2022/11/05 11:32:33;;;;;;;11.02;9.93;;;;;;;;;;5067651;28;20047;-85
2022/11/05 11:35:00;;;;;;;12.00;9.95;;;;;;;;;;5053895;28;20071;-85
2022/11/05 11:37:34;;;;;;;12.45;10.68;;;;;;;;;;5093395;28;20032;-84
2022/11/05 11:40:03;;;;;;;10.35;9.32;;;;;;;;;;5061437;28;20309;-85
2022/11/05 11:42:35;;;;;;;11.00;8.95;;;;;;;;;;5058905;28;20056;-85
2022/11/05 11:45:05;;;;;;;9.10;8.20;;;;;;;;;;5091667;28;20059;-84
2022/11/05 11:47:33;;;;;;;10.43;9.18;;;;;;;;;;5057954;28;20050;-85
2022/11/05 11:50:02;;;;;;;10.23;8.80;;;;;;;;;;5073312;28;20044;-85
2022/11/05 11:52:31;;;;;;;11.00;9.85;;;;;;;;;;5073658;28;20044;-85
2022/11/05 11:55:11;;;;;;;10.23;9.25;;;;;;;;;;5075113;28;20047;-85
2022/11/05 11:57:43;;;;;;;10.90;9.85;;;;;;;;;;5072178;28;20040;-85
2022/11/05 12:00:39;;;;;;;7.70;6.95;;;;;;;;;;5073505;28;20483;-85
2022/11/05 12:03:29;;;;;;;10.90;9.10;;;;;;;;;;5072479;28;20040;-85
2022/11/05 12:06:38;;;;;;;11.13;9.40;;;;;;;;;;5045673;28;20579;-85
2022/11/05 12:13:14;;;;;;;;;;;;;;;;;;;;;
2022/11/05 12:17:01;;;;;;;10.65;8.00;;;;;;;;;;5041394;28;20091;-85
2022/11/05 12:20:03;;;;;;;9.90;8.32;;;;;;;;;;5067855;28;20087;-85
2022/11/05 12:23:38;;;;;;;10.45;8.02;;;;;;;;;;5050370;28;20587;-86
2022/11/05 12:27:10;;;;;;;;;;;;;;;;;;;;;
2022/11/05 12:30:36;;;;;;;;;;;;;;;;;;;;;
2022/11/05 12:33:33;;;;;;;14.00;8.38;;;;;;;;;;5031264;28;20460;-86
2022/11/05 12:36:29;;;;;;;12.38;8.05;;;;;;;;;;5022738;28;20074;-86
2022/11/05 12:44:23;;;;;;;16.13;9.37;;;;;;;;;;4952384;28;20057;-86
2022/11/05 12:47:38;;;;;;;12.13;10.68;;;;;;;;;;4964474;28;20108;-86
2022/11/05 12:50:18;;;;;;;9.18;8.15;;;;;;;;;;4952242;28;20049;-85
2022/11/05 12:52:56;;;;;;;9.75;7.32;;;;;;;;;;5044211;28;20123;-86
2022/11/05 12:55:25;;;;;;;9.40;8.48;;;;;;;;;;5036442;28;20045;-86
2022/11/05 12:57:53;;;;;;;17.45;9.25;;;;;;;;;;5053603;28;20049;-86
2022/11/05 13:00:25;;;;;;;11.70;9.00;;;;;;;;;;5054333;28;20037;-85
2022/11/05 13:03:12;;;;;;;10.15;8.55;;;;;;;;;;5037293;28;20098;-86
2022/11/05 13:05:49;;;;;;;8.65;7.75;;;;;;;;;;5072412;28;20454;-85
2022/11/05 13:08:33;;;;;;;14.75;9.48;;;;;;;;;;5053484;28;20469;-86
2022/11/05 13:11:21;;;;;;;13.15;8.10;;;;;;;;;;5036865;28;20063;-87
2022/11/05 13:14:09;;;;;;;10.90;8.18;;;;;;;;;;5036859;28;20106;-87
2022/11/05 13:16:47;;;;;;;11.75;7.60;;;;;;;;;;5021260;28;20059;-87
2022/11/05 13:19:18;;;;;;;7.82;7.07;;;;;;;;;;5054051;28;20098;-86
2022/11/05 13:21:59;;;;;;;10.98;8.50;;;;;;;;;;5027169;28;20044;-86
2022/11/05 13:24:47;;;;;;;8.63;7.38;;;;;;;;;;5036169;28;20044;-86
2022/11/05 13:27:28;;;;;;;12.20;8.43;;;;;;;;;;5054422;28;20048;-86
2022/11/05 13:30:03;;;;;;;8.02;7.22;;;;;;;;;;5046694;28;20053;-87
2022/11/05 13:33:05;;;;;;;7.70;6.93;;;;;;;;;;5043160;28;20436;-87
2022/11/05 13:38:58;;;;;;;7.88;7.15;;;;;;;;;;5035521;28;20131;-87
2022/11/05 13:39:08;;;;;;;10.43;7.18;;;;;;;;;;5053366;28;20041;-87
2022/11/05 13:42:54;;;;;;;8.85;6.07;;;;;;;;;;5027526;28;20040;-88
2022/11/05 13:45:48;;;;;;;;;;;;;;;;;;;;;
2022/11/05 13:48:32;;;;;;;8.15;6.63;;;;;;;;;;5033076;28;20590;-88
2022/11/05 13:51:28;;;;;;;7.45;6.38;;;;;;;;;;5015435;28;20052;-88
2022/11/05 13:54:54;;;;;;;9.93;6.40;;;;;;;;;;5059525;28;20045;-87
2022/11/05 13:58:48;;;;;;;6.75;6.15;;;;;;;;;;5065260;28;20044;-88
2022/11/05 14:17:58;;;;;;;8.48;7.68;;;;;;;;;;5046839;28;20040;-75
2022/11/05 14:20:31;;;;;;;11.55;7.60;;;;;;;;;;5035690;28;20041;-75
2022/11/05 14:23:16;;;;;;;10.40;7.50;;;;;;;;;;5039398;28;20045;-74
2022/11/05 14:25:44;;;;;;;9.90;8.40;;;;;;;;;;5028309;28;20045;-74
2022/11/05 14:28:30;;;;;;;9.45;7.63;;;;;;;;;;5039964;28;20049;-76
2022/11/05 14:30:57;;;;;;;9.48;8.07;;;;;;;;;;5037657;28;20041;-74
2022/11/05 14:33:24;;;;;;;9.27;8.38;;;;;;;;;;5032332;28;20513;-75
2022/11/05 14:35:53;;;;;;;12.57;11.23;;;;;;;;;;5027876;28;20092;-74
2022/11/05 14:38:23;;;;;;;11.70;10.65;;;;;;;;;;5018222;28;20515;-75
2022/11/05 14:40:58;;;;;;;14.32;12.70;;;;;;;;;;5029623;28;20041;-76
2022/11/05 14:43:27;;;;;;;16.63;11.65;;;;;;;;;;5027198;28;20486;-74
2022/11/05 14:45:54;;;;;;;16.42;12.35;;;;;;;;;;5026917;28;20150;-75
2022/11/05 14:48:40;;;;;;;15.85;11.98;;;;;;;;;;5008261;28;20053;-75
2022/11/05 14:51:27;;;;;;;11.30;10.20;;;;;;;;;;5008815;28;20068;-75
2022/11/05 14:54:06;;;;;;;17.83;14.70;;;;;;;;;;5021122;28;20063;-77
2022/11/05 14:56:47;;;;;;;13.63;11.85;;;;;;;;;;5018672;28;20530;-76
2022/11/05 14:59:30;;;;;;;12.20;10.55;;;;;;;;;;5028749;28;20513;-74
2022/11/05 15:02:01;;;;;;;14.75;12.20;;;;;;;;;;5028096;28;20038;-75
2022/11/05 15:04:29;;;;;;;11.70;9.90;;;;;;;;;;5011021;28;20052;-75
2022/11/05 15:07:03;;;;;;;15.20;11.48;;;;;;;;;;5028954;28;20448;-76
2022/11/05 15:09:50;;;;;;;14.80;11.90;;;;;;;;;;5010646;28;20506;-76
2022/11/05 15:12:23;;;;;;;12.05;8.93;;;;;;;;;;5026829;28;20127;-76
2022/11/05 15:14:58;;;;;;;11.10;8.63;;;;;;;;;;4993629;28;20412;-75
2022/11/05 15:17:28;;;;;;;10.73;9.55;;;;;;;;;;5017225;28;20386;-75
2022/11/05 15:20:17;;;;;;;13.52;10.77;;;;;;;;;;5003243;28;20112;-74
2022/11/05 15:22:47;;;;;;;14.48;12.38;;;;;;;;;;5007014;28;20501;-74
2022/11/05 15:25:23;;;;;;;14.05;12.00;;;;;;;;;;5004153;28;20042;-75
2022/11/05 15:27:59;;;;;;;15.25;10.95;;;;;;;;;;5018574;28;20129;-76
2022/11/05 15:30:26;;;;;;;11.80;10.60;;;;;;;;;;5006227;28;20385;-76
2022/11/05 15:32:54;;;;;;;16.70;13.07;;;;;;;;;;5000574;28;20440;-75
2022/11/05 15:35:25;;;;;;;17.52;13.60;;;;;;;;;;4989436;28;20104;-76
2022/11/05 15:37:54;;;;;;;16.25;13.77;;;;;;;;;;5011238;28;20078;-76
2022/11/05 15:40:30;;;;;;;17.65;14.48;;;;;;;;;;4997374;28;20373;-75
2022/11/05 15:43:12;;;;;;;14.50;12.73;;;;;;;;;;5019764;28;20049;-76
2022/11/05 15:45:40;;;;;;;14.65;12.48;;;;;;;;;;5009547;28;20034;-76
2022/11/05 15:48:15;;;;;;;12.88;10.70;;;;;;;;;;5020901;28;20037;-75
2022/11/05 15:50:45;;;;;;;13.90;11.10;;;;;;;;;;5009615;28;20101;-75
2022/11/05 15:53:29;;;;;;;13.85;11.98;;;;;;;;;;5015094;28;20058;-76
2022/11/05 15:56:25;;;;;;;13.52;11.35;;;;;;;;;;5018085;28;20413;-75
2022/11/05 15:58:55;;;;;;;17.65;12.35;;;;;;;;;;5018687;28;20073;-74
2022/11/05 16:01:33;;;;;;;14.65;12.43;;;;;;;;;;5025844;28;20103;-75
2022/11/05 16:04:10;;;;;;;15.43;12.57;;;;;;;;;;5015726;28;20044;-75
2022/11/05 16:06:39;;;;;;;19.70;14.00;;;;;;;;;;5019985;28;20409;-76
2022/11/05 16:09:06;;;;;;;20.23;15.85;;;;;;;;;;5023303;28;20045;-76
2022/11/05 16:11:34;;;;;;;12.95;11.10;;;;;;;;;;4986905;28;20053;-75
2022/11/05 16:14:17;;;;;;;12.48;11.18;;;;;;;;;;5008397;28;20107;-74
2022/11/05 16:16:44;;;;;;;15.57;13.60;;;;;;;;;;5009411;28;20064;-75
2022/11/05 16:19:31;;;;;;;17.42;13.23;;;;;;;;;;5027244;28;20055;-74